createdAt,value
2023-01-10T00:02:05.224Z,7.50
2023-01-10T00:04:32.888Z,7.50
2023-01-10T00:07:00.418Z,7.50
2023-01-10T00:09:27.950Z,7.60
2023-01-10T00:12:13.468Z,7.60
2023-01-10T00:14:42.560Z,7.50
2023-01-10T00:17:10.100Z,7.50
2023-01-10T00:19:37.752Z,7.60
2023-01-10T00:22:19.035Z,7.60
2023-01-10T00:24:46.784Z,7.70
2023-01-10T00:27:17.115Z,7.60
2023-01-10T00:29:46.857Z,7.50
2023-01-10T00:32:14.547Z,7.50
2023-01-10T00:34:42.302Z,7.40
2023-01-10T00:37:09.930Z,7.50
2023-01-10T00:39:37.749Z,7.40
2023-01-10T00:42:23.017Z,7.30
2023-01-10T00:44:52.488Z,7.40
2023-01-10T00:47:20.242Z,7.40
2023-01-10T00:49:47.842Z,7.30
2023-01-10T00:52:15.490Z,7.30
2023-01-10T00:54:43.119Z,7.40
2023-01-10T00:57:10.730Z,7.50
2023-01-10T00:59:38.283Z,7.50
2023-01-10T01:02:07.279Z,7.40
2023-01-10T01:04:35.168Z,7.40
2023-01-10T01:07:02.851Z,7.50
2023-01-10T01:09:30.816Z,7.60
2023-01-10T01:11:58.505Z,7.50
2023-01-10T01:14:26.254Z,7.40
2023-01-10T01:16:53.886Z,7.40
2023-01-10T01:19:22.792Z,7.40
2023-01-10T01:21:50.379Z,7.50
2023-01-10T01:24:18.045Z,7.20
2023-01-10T01:26:45.674Z,7.20
2023-01-10T01:29:13.348Z,7.10
2023-01-10T01:31:40.915Z,7.00
2023-01-10T01:34:08.485Z,6.90
2023-01-10T01:36:37.368Z,6.90
2023-01-10T01:39:06.201Z,6.70
2023-01-10T01:41:51.588Z,6.60
2023-01-10T01:44:20.195Z,6.60
2023-01-10T01:46:49.484Z,6.70
2023-01-10T01:49:21.222Z,6.80
2023-01-10T01:51:52.663Z,6.80
2023-01-10T01:54:20.473Z,6.80
2023-01-10T01:56:51.818Z,6.80
2023-01-10T01:59:21.390Z,7.00
2023-01-10T02:01:51.338Z,6.90
2023-01-10T02:04:21.523Z,6.90
2023-01-10T02:06:52.526Z,7.00
2023-01-10T02:09:24.838Z,7.00
2023-01-10T02:11:52.517Z,7.10
2023-01-10T02:14:20.586Z,6.90
2023-01-10T02:16:48.235Z,6.90
2023-01-10T02:19:19.952Z,7.10
2023-01-10T02:22:08.426Z,6.90
2023-01-10T02:24:54.511Z,6.90
2023-01-10T02:27:27.299Z,6.90
2023-01-10T02:30:14.781Z,6.90
2023-01-10T02:32:57.005Z,7.10
2023-01-10T02:35:51.708Z,6.90
2023-01-10T02:38:24.188Z,7.20
2023-01-10T02:40:56.280Z,7.20
2023-01-10T02:43:26.546Z,7.20
2023-01-10T02:45:56.144Z,7.00
2023-01-10T02:48:25.218Z,7.00
2023-01-10T02:50:55.288Z,7.00
2023-01-10T02:53:24.545Z,7.00
2023-01-10T02:55:59.948Z,7.00
2023-01-10T02:58:31.152Z,6.90
2023-01-10T03:01:03.464Z,7.00
2023-01-10T03:03:36.845Z,7.10
2023-01-10T03:06:11.577Z,7.20
2023-01-10T03:08:41.923Z,7.10
2023-01-10T03:11:10.349Z,6.90
2023-01-10T03:13:42.795Z,7.00
2023-01-10T03:16:13.941Z,6.90
2023-01-10T03:18:44.401Z,6.90
2023-01-10T03:21:12.353Z,6.90
2023-01-10T03:23:41.472Z,6.90
2023-01-10T03:26:11.048Z,6.90
2023-01-10T03:28:42.453Z,6.90
2023-01-10T03:31:12.122Z,6.90
2023-01-10T03:33:39.928Z,6.90
2023-01-10T03:36:20.813Z,6.90
2023-01-10T03:38:51.351Z,6.80
2023-01-10T03:41:37.061Z,6.80
2023-01-10T03:44:25.346Z,6.80
2023-01-10T03:46:55.667Z,6.60
2023-01-10T03:49:24.140Z,6.50
2023-01-10T03:51:53.627Z,6.40
2023-01-10T03:54:21.347Z,6.30
2023-01-10T03:56:50.726Z,6.20
2023-01-10T03:59:19.105Z,6.10
2023-01-10T04:01:46.789Z,6.20
2023-01-10T04:04:14.430Z,6.10
2023-01-10T04:06:42.045Z,6.10
2023-01-10T04:09:11.004Z,5.90
2023-01-10T04:11:38.584Z,5.90
2023-01-10T04:14:06.489Z,5.90
2023-01-10T04:16:34.066Z,5.90
2023-01-10T04:19:03.727Z,5.90
2023-01-10T04:21:31.347Z,5.90
2023-01-10T04:23:58.951Z,5.90
2023-01-10T04:26:28.010Z,5.90
2023-01-10T04:28:55.593Z,5.90
2023-01-10T04:31:23.454Z,6.00
2023-01-10T04:33:51.007Z,6.10
2023-01-10T04:36:18.577Z,6.20
2023-01-10T04:38:46.170Z,6.10
2023-01-10T04:41:13.806Z,6.20
2023-01-10T04:43:42.835Z,6.10
2023-01-10T04:46:10.424Z,6.10
2023-01-10T04:48:38.158Z,6.20
2023-01-10T04:51:05.953Z,6.20
2023-01-10T04:53:33.537Z,6.30
2023-01-10T04:56:03.172Z,6.40
2023-01-10T04:58:30.741Z,6.30
2023-01-10T05:00:59.786Z,6.40
2023-01-10T05:03:27.344Z,6.30
2023-01-10T05:05:54.907Z,6.40
2023-01-10T05:08:22.484Z,6.30
2023-01-10T05:10:50.078Z,6.40
2023-01-10T05:13:17.625Z,6.50
2023-01-10T05:15:45.194Z,6.50
2023-01-10T05:18:14.079Z,6.50
2023-01-10T05:20:41.697Z,6.50
2023-01-10T05:23:09.237Z,6.60
2023-01-10T05:25:36.837Z,6.60
2023-01-10T05:28:04.526Z,6.60
2023-01-10T05:30:32.117Z,6.50
2023-01-10T05:32:59.671Z,6.50
2023-01-10T05:35:28.773Z,6.40
2023-01-10T05:37:56.361Z,6.50
2023-01-10T05:40:24.005Z,6.40
2023-01-10T05:42:51.580Z,6.50
2023-01-10T05:45:20.262Z,6.40
2023-01-10T05:47:47.859Z,6.30
2023-01-10T05:50:16.008Z,6.50
2023-01-10T05:52:45.596Z,6.40
2023-01-10T05:55:13.184Z,6.30
2023-01-10T05:57:40.811Z,6.40
2023-01-10T06:00:09.128Z,6.30
2023-01-10T06:02:36.853Z,6.20
2023-01-10T06:05:04.625Z,6.20
2023-01-10T06:07:32.561Z,6.20
2023-01-10T06:10:01.523Z,6.20
2023-01-10T06:12:31.296Z,6.00
2023-01-10T06:14:58.845Z,5.90
2023-01-10T06:17:26.937Z,5.90
2023-01-10T06:19:54.541Z,5.90
2023-01-10T06:22:22.098Z,5.80
2023-01-10T06:24:49.669Z,5.80
2023-01-10T06:27:18.739Z,5.80
2023-01-10T06:29:46.317Z,5.70
2023-01-10T06:32:13.972Z,5.70
2023-01-10T06:34:41.549Z,5.90
2023-01-10T06:37:09.393Z,5.80
2023-01-10T06:39:37.085Z,5.80
2023-01-10T06:42:04.937Z,5.90
2023-01-10T06:44:33.813Z,5.90
2023-01-10T06:47:01.418Z,5.90
2023-01-10T06:49:29.830Z,6.00
2023-01-10T06:51:57.463Z,5.80
2023-01-10T06:54:25.188Z,5.70
2023-01-10T06:56:52.765Z,5.80
2023-01-10T06:59:20.423Z,6.00
2023-01-10T07:01:49.423Z,5.70
2023-01-10T07:04:17.115Z,5.70
2023-01-10T07:06:44.695Z,5.70
2023-01-10T07:09:12.262Z,5.70
2023-01-10T07:11:39.911Z,5.70
2023-01-10T07:14:09.767Z,5.70
2023-01-10T07:16:38.414Z,5.70
2023-01-10T07:19:07.335Z,5.70
2023-01-10T07:21:35.009Z,5.70
2023-01-10T07:24:03.112Z,5.80
2023-01-10T07:26:30.703Z,5.90
2023-01-10T07:28:58.298Z,5.80
2023-01-10T07:31:26.085Z,5.90
2023-01-10T07:33:53.757Z,5.80
2023-01-10T07:36:23.047Z,5.90
2023-01-10T07:38:50.677Z,5.90
2023-01-10T07:41:18.245Z,5.90
2023-01-10T07:43:45.817Z,6.00
2023-01-10T07:46:13.462Z,5.80
2023-01-10T07:48:42.093Z,5.70
2023-01-10T07:51:10.151Z,5.60
2023-01-10T07:53:39.430Z,5.60
2023-01-10T07:56:07.663Z,5.60
2023-01-10T07:58:35.314Z,5.60
2023-01-10T08:01:03.694Z,5.60
2023-01-10T08:03:33.037Z,5.80
2023-01-10T08:06:01.051Z,5.80
2023-01-10T08:08:28.922Z,5.90
2023-01-10T08:10:59.519Z,6.00
2023-01-10T08:13:27.103Z,6.20
2023-01-10T08:15:54.695Z,6.30
2023-01-10T08:18:23.017Z,6.20
2023-01-10T08:20:50.914Z,6.20
2023-01-10T08:23:19.007Z,6.30
2023-01-10T08:25:46.945Z,6.30
2023-01-10T08:28:16.117Z,6.30
2023-01-10T08:30:43.740Z,6.40
2023-01-10T08:33:12.088Z,6.40
2023-01-10T08:35:40.059Z,6.50
2023-01-10T08:38:07.996Z,6.50
2023-01-10T08:40:35.623Z,6.50
2023-01-10T08:43:04.689Z,6.60
2023-01-10T08:45:34.341Z,6.50
2023-01-10T08:48:03.549Z,6.50
2023-01-10T08:50:32.686Z,6.40
2023-01-10T08:53:00.986Z,6.60
2023-01-10T08:55:31.093Z,6.60
2023-01-10T08:58:00.216Z,6.60
2023-01-10T09:00:28.248Z,6.60
2023-01-10T09:02:57.310Z,6.60
2023-01-10T09:05:27.750Z,6.70
2023-01-10T09:07:59.285Z,6.80
2023-01-10T09:10:27.308Z,6.80
2023-01-10T09:12:59.784Z,6.80
2023-01-10T09:15:29.134Z,6.80
2023-01-10T09:17:59.227Z,6.70
2023-01-10T09:20:27.718Z,6.70
2023-01-10T09:22:56.748Z,6.90
2023-01-10T09:25:24.801Z,6.80
2023-01-10T09:27:57.038Z,6.80
2023-01-10T09:30:28.247Z,6.80
2023-01-10T09:32:56.481Z,6.90
2023-01-10T09:35:26.196Z,7.00
2023-01-10T09:37:55.142Z,7.10
2023-01-10T09:40:29.383Z,7.10
2023-01-10T09:43:04.092Z,7.20
2023-01-10T09:45:36.022Z,7.20
2023-01-10T09:48:05.989Z,7.20
2023-01-10T09:50:44.781Z,7.10
2023-01-10T09:53:14.259Z,7.00
2023-01-10T09:55:43.161Z,7.00
2023-01-10T09:58:13.660Z,7.20
2023-01-10T10:00:43.780Z,7.10
2023-01-10T10:03:19.766Z,7.10
2023-01-10T10:05:50.520Z,7.10
2023-01-10T10:08:20.742Z,7.10
2023-01-10T10:11:10.306Z,7.20
2023-01-10T10:13:46.051Z,7.30
2023-01-10T10:16:20.351Z,7.30
2023-01-10T10:18:55.100Z,7.30
2023-01-10T10:21:29.635Z,7.30
2023-01-10T10:24:08.698Z,7.30
2023-01-10T10:26:37.153Z,7.30
2023-01-10T10:29:20.697Z,7.30
2023-01-10T10:31:52.851Z,7.40
2023-01-10T10:34:24.088Z,7.30
2023-01-10T10:36:55.517Z,7.30
2023-01-10T10:39:25.164Z,7.20
2023-01-10T10:41:54.096Z,7.30
2023-01-10T10:44:32.676Z,7.20
2023-01-10T10:47:01.510Z,7.30
2023-01-10T10:49:43.343Z,7.40
2023-01-10T10:52:18.559Z,7.50
2023-01-10T10:54:47.903Z,7.40
2023-01-10T10:57:15.841Z,7.20
2023-01-10T10:59:45.771Z,7.20
2023-01-10T11:02:19.690Z,7.20
2023-01-10T11:04:48.114Z,7.30
2023-01-10T11:07:18.572Z,7.40
2023-01-10T11:09:49.136Z,7.40
2023-01-10T11:12:18.169Z,7.50
2023-01-10T11:14:47.093Z,7.50
2023-01-10T11:17:25.825Z,7.70
2023-01-10T11:19:57.598Z,7.60
2023-01-10T11:22:28.443Z,7.70
2023-01-10T11:24:57.640Z,7.70
2023-01-10T11:27:26.960Z,7.70
2023-01-10T11:29:57.319Z,7.50
2023-01-10T11:32:29.447Z,7.50
2023-01-10T11:34:59.976Z,7.60
2023-01-10T11:37:33.436Z,7.70
2023-01-10T11:40:18.500Z,7.70
2023-01-10T11:42:46.413Z,7.80
2023-01-10T11:45:24.369Z,7.80
2023-01-10T11:47:54.710Z,7.80
2023-01-10T11:50:23.607Z,7.50
2023-01-10T11:52:52.882Z,7.70
2023-01-10T11:55:21.487Z,7.70
2023-01-10T11:57:55.616Z,7.80
2023-01-10T12:00:23.804Z,7.70
2023-01-10T12:02:52.538Z,7.70
2023-01-10T12:05:21.582Z,7.70
2023-01-10T12:07:57.576Z,7.70
2023-01-10T12:10:26.206Z,7.80
2023-01-10T12:12:55.182Z,7.70
2023-01-10T12:15:23.805Z,7.70
2023-01-10T12:17:51.578Z,7.80
2023-01-10T12:20:19.623Z,8.00
2023-01-10T12:22:48.522Z,7.90
2023-01-10T12:25:20.061Z,7.90
2023-01-10T12:27:50.294Z,7.90
2023-01-10T12:30:19.901Z,8.10
2023-01-10T12:32:48.818Z,8.00
2023-01-10T12:35:18.203Z,7.90
2023-01-10T12:37:47.394Z,8.10
2023-01-10T12:40:16.902Z,8.10
2023-01-10T12:43:05.622Z,8.20
2023-01-10T12:45:36.692Z,8.20
2023-01-10T12:48:07.784Z,8.30
2023-01-10T12:50:38.182Z,8.20
2023-01-10T12:53:08.053Z,8.20
2023-01-10T12:55:37.983Z,8.20
2023-01-10T12:58:08.600Z,8.20
2023-01-10T13:00:47.889Z,8.20
2023-01-10T13:03:18.250Z,8.20
2023-01-10T13:05:49.722Z,8.30
2023-01-10T13:08:18.809Z,8.30
2023-01-10T13:10:48.589Z,8.40
2023-01-10T13:13:21.897Z,8.40
2023-01-10T13:15:52.034Z,8.30
2023-01-10T13:18:24.361Z,8.30
2023-01-10T13:21:02.859Z,8.40
2023-01-10T13:23:33.504Z,8.50
2023-01-10T13:26:02.899Z,8.50
2023-01-10T13:28:33.429Z,8.50
2023-01-10T13:31:02.574Z,8.40
2023-01-10T13:33:31.333Z,8.30
2023-01-10T13:36:07.612Z,8.30
2023-01-10T13:38:38.916Z,8.30
2023-01-10T13:41:07.778Z,8.50
2023-01-10T13:43:40.450Z,8.50
2023-01-10T13:46:26.840Z,8.50
2023-01-10T13:49:13.265Z,8.60
2023-01-10T13:52:00.958Z,8.80
2023-01-10T13:54:29.274Z,8.50
2023-01-10T13:56:57.131Z,8.40
2023-01-10T13:59:57.458Z,8.40
2023-01-10T14:02:31.525Z,8.20
2023-01-10T14:05:02.581Z,8.20
2023-01-10T14:07:32.117Z,8.20
2023-01-10T14:10:04.942Z,8.20
2023-01-10T14:12:35.666Z,8.20
2023-01-10T14:15:07.127Z,8.30
2023-01-10T14:17:37.255Z,8.20
2023-01-10T14:20:07.568Z,8.10
2023-01-10T14:22:36.679Z,8.20
2023-01-10T14:25:05.730Z,8.10
2023-01-10T14:27:37.695Z,8.10
2023-01-10T14:30:07.328Z,8.10
2023-01-10T14:32:39.430Z,8.10
2023-01-10T14:35:09.242Z,8.10
2023-01-10T14:37:40.619Z,8.10
2023-01-10T14:40:16.927Z,8.10
2023-01-10T14:42:48.956Z,8.10
2023-01-10T14:45:21.494Z,8.00
2023-01-10T14:47:50.867Z,8.00
2023-01-10T14:50:33.205Z,8.00
2023-01-10T14:53:02.890Z,7.90
2023-01-10T14:55:31.546Z,8.00
2023-01-10T14:58:00.772Z,8.00
2023-01-10T15:00:29.840Z,7.90
2023-01-10T15:03:01.728Z,8.00
2023-01-10T15:05:31.262Z,8.00
2023-01-10T15:08:14.409Z,8.00
2023-01-10T15:10:43.280Z,7.90
2023-01-10T15:13:15.124Z,7.80
2023-01-10T15:15:44.383Z,7.90
2023-01-10T15:18:29.621Z,7.90
2023-01-10T15:20:58.466Z,7.90
2023-01-10T15:23:27.593Z,7.80
2023-01-10T15:26:00.664Z,7.70
2023-01-10T15:28:30.894Z,7.80
2023-01-10T15:30:59.787Z,7.70
2023-01-10T15:33:30.561Z,7.70
2023-01-10T15:35:58.979Z,7.80
2023-01-10T15:38:30.278Z,7.80
2023-01-10T15:41:16.361Z,7.80
2023-01-10T15:43:47.211Z,7.80
2023-01-10T15:46:20.044Z,7.80
2023-01-10T15:48:56.763Z,7.70
2023-01-10T15:51:27.220Z,7.60
2023-01-10T15:53:57.966Z,7.60
2023-01-10T15:56:27.834Z,7.50
2023-01-10T15:58:56.475Z,7.50
2023-01-10T16:01:26.364Z,7.50
2023-01-10T16:03:58.489Z,7.60
2023-01-10T16:06:27.281Z,7.70
2023-01-10T16:08:56.111Z,7.50
2023-01-10T16:11:46.884Z,7.50
2023-01-10T16:14:14.543Z,7.50
2023-01-10T16:16:46.402Z,7.50
2023-01-10T16:19:15.407Z,7.50
2023-01-10T16:21:45.436Z,7.50
2023-01-10T16:24:17.991Z,7.50
2023-01-10T16:26:46.365Z,7.50
2023-01-10T16:29:14.409Z,7.40
2023-01-10T16:31:42.090Z,7.40
2023-01-10T16:34:10.621Z,7.40
2023-01-10T16:36:43.014Z,7.40
2023-01-10T16:39:14.387Z,7.30
2023-01-10T16:42:00.574Z,7.40
2023-01-10T16:44:28.262Z,7.40
2023-01-10T16:46:56.333Z,7.40
2023-01-10T16:49:24.509Z,7.30
2023-01-10T16:51:53.962Z,7.30
2023-01-10T16:54:22.393Z,7.30
2023-01-10T16:56:50.448Z,7.30
2023-01-10T16:59:18.606Z,7.30
2023-01-10T17:01:47.992Z,7.30
2023-01-10T17:04:18.950Z,7.30
2023-01-10T17:06:46.965Z,7.10
2023-01-10T17:09:19.396Z,7.20
2023-01-10T17:11:56.612Z,7.20
2023-01-10T17:14:24.738Z,7.20
2023-01-10T17:16:52.953Z,7.10
2023-01-10T17:19:20.641Z,7.10
2023-01-10T17:21:48.931Z,7.10
2023-01-10T17:24:18.663Z,7.20
2023-01-10T17:26:46.643Z,7.20
2023-01-10T17:29:14.720Z,7.10
2023-01-10T17:31:42.399Z,7.00
2023-01-10T17:34:10.016Z,7.10
2023-01-10T17:36:39.483Z,7.00
2023-01-10T17:39:07.397Z,7.00
2023-01-10T17:41:36.390Z,7.00
2023-01-10T17:44:04.064Z,7.00
2023-01-10T17:46:31.654Z,7.00
2023-01-10T17:48:59.348Z,6.90
2023-01-10T17:51:28.889Z,6.90
2023-01-10T17:53:56.924Z,6.90
2023-01-10T17:56:26.605Z,6.90
2023-01-10T17:58:55.587Z,6.90
2023-01-10T18:01:25.484Z,6.80
2023-01-10T18:03:53.569Z,6.90
2023-01-10T18:06:25.646Z,6.90
2023-01-10T18:08:53.584Z,6.90
2023-01-10T18:11:21.300Z,6.90
2023-01-10T18:13:49.044Z,6.90
2023-01-10T18:16:18.142Z,6.80
2023-01-10T18:18:45.830Z,6.80
2023-01-10T18:21:13.889Z,6.90
2023-01-10T18:23:41.553Z,6.80
2023-01-10T18:26:10.112Z,6.90
2023-01-10T18:28:41.793Z,6.80
2023-01-10T18:31:11.845Z,6.90
2023-01-10T18:33:41.259Z,6.90
2023-01-10T18:36:09.918Z,6.90
2023-01-10T18:38:37.792Z,6.90
2023-01-10T18:41:06.024Z,6.90
2023-01-10T18:43:33.934Z,6.90
2023-01-10T18:46:03.993Z,6.90
2023-01-10T18:48:31.879Z,6.90
2023-01-10T18:51:01.654Z,6.90
2023-01-10T18:53:29.321Z,7.00
2023-01-10T18:56:03.389Z,6.90
2023-01-10T18:58:31.960Z,6.90
2023-01-10T19:01:05.084Z,6.90
2023-01-10T19:03:33.278Z,6.90
2023-01-10T19:06:02.471Z,6.90
2023-01-10T19:08:30.110Z,7.00
2023-01-10T19:11:12.321Z,7.00
2023-01-10T19:13:40.329Z,7.00
2023-01-10T19:16:08.825Z,7.00
2023-01-10T19:18:36.523Z,7.00
2023-01-10T19:21:06.060Z,7.00
2023-01-10T19:23:34.041Z,7.00
2023-01-10T19:26:01.831Z,7.00
2023-01-10T19:28:30.477Z,7.00
2023-01-10T19:31:04.520Z,7.60
2023-01-10T19:33:32.851Z,7.70
2023-01-10T19:36:06.732Z,7.50
2023-01-10T19:38:34.468Z,7.30
2023-01-10T19:41:07.063Z,7.20
2023-01-10T19:43:34.796Z,7.20
2023-01-10T19:46:05.996Z,7.10
2023-01-10T19:48:35.778Z,7.00
2023-01-10T19:51:06.906Z,7.00
2023-01-10T19:53:37.556Z,7.00
2023-01-10T19:56:09.725Z,7.10
2023-01-10T19:58:38.627Z,7.10
2023-01-10T20:01:10.339Z,7.10
2023-01-10T20:03:42.143Z,7.10
2023-01-10T20:06:13.943Z,7.10
2023-01-10T20:08:41.823Z,7.10
2023-01-10T20:11:11.526Z,7.10
2023-01-10T20:13:44.400Z,7.20
2023-01-10T20:16:12.655Z,7.10
2023-01-10T20:18:40.441Z,7.20
2023-01-10T20:21:09.287Z,7.10
2023-01-10T20:23:40.482Z,7.00
2023-01-10T20:26:09.566Z,7.00
2023-01-10T20:28:37.704Z,6.90
2023-01-10T20:31:05.902Z,7.00
2023-01-10T20:33:34.515Z,6.80
2023-01-10T20:36:03.691Z,6.80
2023-01-10T20:38:31.967Z,6.80
2023-01-10T20:41:01.620Z,6.80
2023-01-10T20:43:29.368Z,6.80
2023-01-10T20:45:56.977Z,6.70
2023-01-10T20:48:24.628Z,6.60
2023-01-10T20:50:52.424Z,6.60
2023-01-10T20:53:20.191Z,6.50
2023-01-10T20:55:59.083Z,6.50
2023-01-10T20:58:28.767Z,6.50
2023-01-10T21:00:56.405Z,6.50
2023-01-10T21:03:24.056Z,6.40
2023-01-10T21:05:51.692Z,6.60
2023-01-10T21:08:19.312Z,6.50
2023-01-10T21:10:49.631Z,6.30
2023-01-10T21:13:17.211Z,6.30
2023-01-10T21:15:46.917Z,6.30
2023-01-10T21:18:15.546Z,6.30
2023-01-10T21:20:43.539Z,6.20
2023-01-10T21:23:11.189Z,6.20
2023-01-10T21:25:38.904Z,6.20
2023-01-10T21:28:09.753Z,6.20
2023-01-10T21:30:37.570Z,6.30
2023-01-10T21:33:06.730Z,6.20
2023-01-10T21:35:34.832Z,6.20
2023-01-10T21:38:03.163Z,6.30
2023-01-10T21:40:31.760Z,6.20
2023-01-10T21:43:00.179Z,6.20
2023-01-10T21:45:28.508Z,6.30
2023-01-10T21:47:56.371Z,6.30
2023-01-10T21:50:25.669Z,6.30
2023-01-10T21:52:53.238Z,6.20
2023-01-10T21:55:22.979Z,6.20
2023-01-10T21:57:50.574Z,6.10
2023-01-10T22:00:18.819Z,6.30
2023-01-10T22:02:47.543Z,6.30
2023-01-10T22:05:15.316Z,6.30
2023-01-10T22:07:48.419Z,6.30
2023-01-10T22:10:16.021Z,6.30
2023-01-10T22:12:49.699Z,6.10
2023-01-10T22:15:18.845Z,6.20
2023-01-10T22:17:48.057Z,6.10
2023-01-10T22:20:16.762Z,6.20
2023-01-10T22:22:44.520Z,6.10
2023-01-10T22:25:13.720Z,6.10
2023-01-10T22:27:44.103Z,6.10
2023-01-10T22:30:12.908Z,6.00
2023-01-10T22:32:40.646Z,6.10
2023-01-10T22:35:08.648Z,6.00
2023-01-10T22:37:36.230Z,6.00
2023-01-10T22:40:08.599Z,6.00
2023-01-10T22:42:41.982Z,6.00
2023-01-10T22:45:15.498Z,6.00
2023-01-10T22:47:43.140Z,6.00
2023-01-10T22:50:11.402Z,6.00
2023-01-10T22:52:38.994Z,6.00
2023-01-10T22:55:09.062Z,6.20
2023-01-10T22:57:46.746Z,6.20
2023-01-10T23:00:19.934Z,6.00
2023-01-10T23:02:47.560Z,6.00
2023-01-10T23:05:15.278Z,6.00
2023-01-10T23:07:43.090Z,6.10
2023-01-10T23:10:28.450Z,6.10
2023-01-10T23:12:58.492Z,6.10
2023-01-10T23:15:27.419Z,6.10
2023-01-10T23:17:55.207Z,6.10
2023-01-10T23:20:22.819Z,6.10
2023-01-10T23:22:50.390Z,6.10
2023-01-10T23:25:18.227Z,6.10
2023-01-10T23:27:45.861Z,6.10
2023-01-10T23:30:13.663Z,6.10
2023-01-10T23:32:42.707Z,6.10
2023-01-10T23:35:11.539Z,6.20
2023-01-10T23:37:39.132Z,6.10
2023-01-10T23:40:07.369Z,6.10
2023-01-10T23:42:35.116Z,6.20
2023-01-10T23:45:02.709Z,6.10
2023-01-10T23:47:30.289Z,6.20
2023-01-10T23:49:59.192Z,6.20
2023-01-10T23:52:26.803Z,6.20
2023-01-10T23:54:54.353Z,6.30
2023-01-10T23:57:21.967Z,6.30
2023-01-10T23:59:49.555Z,6.30
